DECEMBER 5th, 2016

 

METAR SMJP 051800Z 34008KT 9999 TS VCSH FEW018CB SCT030 33/21 Q1010 NOSIG=

METAR SMZO 051800Z 34002KT 9999 TS VCSH FEW015 FEW018CB 28/24 Q1010 NOSIG=

METAR SMNI 051800Z 07010KT 9999 FEW020 FEW030CB 31/25 Q1011=

METAR SMST 051800Z 10004KT 9999 SCT035 34/22 Q////=